createdAt,value
2017-10-23T00:00:26.674Z,1007.85
2017-10-23T00:01:26.638Z,1007.76
2017-10-23T00:02:26.600Z,1007.82
2017-10-23T00:03:26.566Z,1007.87
2017-10-23T00:04:26.529Z,1007.82
2017-10-23T00:05:26.492Z,1007.87
2017-10-23T00:06:26.463Z,1007.82
2017-10-23T00:07:26.420Z,1007.79
2017-10-23T00:08:26.382Z,1007.83
2017-10-23T00:09:26.349Z,1007.79
2017-10-23T00:10:26.311Z,1007.78
2017-10-23T00:11:26.274Z,1007.85
2017-10-23T00:12:26.259Z,1007.85
2017-10-23T00:13:26.690Z,1007.88
2017-10-23T00:14:26.171Z,1007.83
2017-10-23T00:15:26.128Z,1007.91
2017-10-23T00:16:26.093Z,1007.83
2017-10-23T00:17:26.055Z,1007.90
2017-10-23T00:18:26.019Z,1007.93
2017-10-23T00:19:25.986Z,1007.88
2017-10-23T00:20:25.948Z,1007.88
2017-10-23T00:21:25.910Z,1007.82
2017-10-23T00:22:25.876Z,1007.95
2017-10-23T00:23:25.837Z,1007.93
2017-10-23T00:24:25.803Z,1007.91
2017-10-23T00:25:25.765Z,1007.89
2017-10-23T00:26:25.729Z,1007.95
2017-10-23T00:27:25.692Z,1007.94
2017-10-23T00:28:25.655Z,1007.85
2017-10-23T00:29:25.620Z,1007.91
2017-10-23T00:30:25.582Z,1007.80
2017-10-23T00:31:25.546Z,1007.83
2017-10-23T00:32:25.506Z,1007.88
2017-10-23T00:33:25.474Z,1007.88
2017-10-23T00:34:25.437Z,1007.85
2017-10-23T00:35:25.403Z,1007.81
2017-10-23T00:36:25.364Z,1007.82
2017-10-23T00:37:25.329Z,1007.84
2017-10-23T00:38:25.292Z,1007.88
2017-10-23T00:39:25.256Z,1007.91
2017-10-23T00:40:25.219Z,1007.91
2017-10-23T00:41:25.183Z,1007.90
2017-10-23T00:42:25.146Z,1007.96
2017-10-23T00:43:25.111Z,1007.88
2017-10-23T00:44:25.074Z,1007.89
2017-10-23T00:45:25.036Z,1007.91
2017-10-23T00:46:25.000Z,1007.93
2017-10-23T00:47:24.963Z,1007.91
2017-10-23T00:48:24.930Z,1007.87
2017-10-23T00:49:24.893Z,1007.93
2017-10-23T00:50:24.855Z,1007.95
2017-10-23T00:51:24.821Z,1007.91
2017-10-23T00:52:24.785Z,1007.99
2017-10-23T00:53:24.749Z,1007.94
2017-10-23T00:54:24.707Z,1007.96
2017-10-23T00:55:24.673Z,1008.00
2017-10-23T00:56:24.640Z,1007.96
2017-10-23T00:57:24.605Z,1007.97
2017-10-23T00:58:24.566Z,1007.98
2017-10-23T00:59:24.529Z,1007.95
2017-10-23T01:00:24.493Z,1008.04
2017-10-23T01:01:24.456Z,1008.01
2017-10-23T01:02:24.420Z,1008.00
2017-10-23T01:03:24.384Z,1008.00
2017-10-23T01:04:24.348Z,1008.01
2017-10-23T01:05:24.310Z,1008.00
2017-10-23T01:06:24.273Z,1008.03
2017-10-23T01:07:24.238Z,1007.99
2017-10-23T01:08:24.202Z,1008.08
2017-10-23T01:09:24.165Z,1008.06
2017-10-23T01:10:24.128Z,1008.02
2017-10-23T01:11:24.093Z,1008.07
2017-10-23T01:12:24.057Z,1008.07
2017-10-23T01:13:24.027Z,1008.04
2017-10-23T01:14:23.983Z,1008.00
2017-10-23T01:15:23.947Z,1008.00
2017-10-23T01:16:23.914Z,1008.04
2017-10-23T01:17:23.875Z,1008.05
2017-10-23T01:18:23.838Z,1008.03
2017-10-23T01:19:23.803Z,1007.97
2017-10-23T01:20:23.766Z,1008.04
2017-10-23T01:21:23.727Z,1008.02
2017-10-23T01:22:23.691Z,1008.00
2017-10-23T01:23:23.656Z,1007.94
2017-10-23T01:24:23.619Z,1007.92
2017-10-23T01:25:23.583Z,1007.99
2017-10-23T01:26:23.548Z,1007.97
2017-10-23T01:27:23.510Z,1008.01
2017-10-23T01:28:23.474Z,1008.09
2017-10-23T01:29:23.439Z,1007.99
2017-10-23T01:30:23.399Z,1008.03
2017-10-23T01:31:23.365Z,1008.05
2017-10-23T01:32:23.328Z,1008.09
2017-10-23T01:33:23.291Z,1008.07
2017-10-23T01:34:23.254Z,1008.01
2017-10-23T01:35:23.218Z,1008.08
2017-10-23T01:36:23.183Z,1008.05
2017-10-23T01:37:23.149Z,1008.05
2017-10-23T01:38:23.108Z,1008.03
2017-10-23T01:39:23.073Z,1007.98
2017-10-23T01:40:23.043Z,1008.07
2017-10-23T01:41:23.005Z,1007.96
2017-10-23T01:42:22.964Z,1008.02
2017-10-23T01:43:22.931Z,1008.05
2017-10-23T01:44:22.885Z,1008.02
2017-10-23T01:45:22.854Z,1008.05
2017-10-23T01:46:22.819Z,1008.08
2017-10-23T01:47:22.782Z,1008.04
2017-10-23T01:48:22.747Z,1008.14
2017-10-23T01:49:22.707Z,1007.99
2017-10-23T01:50:22.673Z,1008.13
2017-10-23T01:51:22.636Z,1008.16
2017-10-23T01:52:22.598Z,1008.10
2017-10-23T01:53:22.562Z,1008.07
2017-10-23T01:54:22.528Z,1008.08
2017-10-23T01:55:22.490Z,1008.20
2017-10-23T01:56:22.454Z,1008.13
2017-10-23T01:57:22.419Z,1008.14
2017-10-23T01:58:22.384Z,1008.15
2017-10-23T01:59:22.344Z,1008.04
2017-10-23T02:00:22.310Z,1008.18
2017-10-23T02:01:22.272Z,1008.08
2017-10-23T02:02:22.235Z,1008.20
2017-10-23T02:03:22.203Z,1008.15
2017-10-23T02:04:22.164Z,1008.15
2017-10-23T02:05:22.126Z,1008.12
2017-10-23T02:06:22.089Z,1008.16
2017-10-23T02:07:22.056Z,1008.18
2017-10-23T02:08:22.017Z,1008.21
2017-10-23T02:09:21.981Z,1008.16
2017-10-23T02:10:21.945Z,1008.16
2017-10-23T02:11:21.907Z,1008.22
2017-10-23T02:12:21.873Z,1008.19
2017-10-23T02:13:21.835Z,1008.27
2017-10-23T02:14:21.799Z,1008.24
2017-10-23T02:15:21.761Z,1008.18
2017-10-23T02:16:21.725Z,1008.22
2017-10-23T02:17:21.689Z,1008.26
2017-10-23T02:18:21.653Z,1008.19
2017-10-23T02:19:21.617Z,1008.18
2017-10-23T02:20:21.581Z,1008.20
2017-10-23T02:21:21.544Z,1008.20
2017-10-23T02:22:21.508Z,1008.19
2017-10-23T02:23:21.469Z,1008.27
2017-10-23T02:24:21.433Z,1008.09
2017-10-23T02:25:21.397Z,1008.15
2017-10-23T02:26:21.361Z,1008.23
2017-10-23T02:27:21.324Z,1008.19
2017-10-23T02:28:21.289Z,1008.15
2017-10-23T02:29:21.252Z,1008.25
2017-10-23T02:30:21.537Z,1008.20
2017-10-23T02:31:21.178Z,1008.18
2017-10-23T02:32:21.143Z,1008.17
2017-10-23T02:33:21.107Z,1008.24
2017-10-23T02:34:21.071Z,1008.29
2017-10-23T02:35:21.035Z,1008.27
2017-10-23T02:36:20.996Z,1008.23
2017-10-23T02:37:20.961Z,1008.25
2017-10-23T02:38:20.924Z,1008.29
2017-10-23T02:39:20.889Z,1008.23
2017-10-23T02:40:20.852Z,1008.24
2017-10-23T02:41:20.814Z,1008.30
2017-10-23T02:42:20.836Z,1008.27
2017-10-23T02:43:20.742Z,1008.40
2017-10-23T02:44:20.704Z,1008.41
2017-10-23T02:45:20.669Z,1008.37
2017-10-23T02:46:20.633Z,1008.33
2017-10-23T02:47:20.597Z,1008.34
2017-10-23T02:48:20.560Z,1008.38
2017-10-23T02:49:20.523Z,1008.40
2017-10-23T02:50:20.487Z,1008.36
2017-10-23T02:51:20.449Z,1008.33
2017-10-23T02:52:20.413Z,1008.33
2017-10-23T02:53:20.377Z,1008.33
2017-10-23T02:54:20.346Z,1008.33
2017-10-23T02:55:20.305Z,1008.30
2017-10-23T02:56:20.268Z,1008.37
2017-10-23T02:57:20.233Z,1008.36
2017-10-23T02:58:20.203Z,1008.36
2017-10-23T02:59:20.160Z,1008.31
2017-10-23T03:00:20.248Z,1008.34
2017-10-23T03:01:20.086Z,1008.42
2017-10-23T03:02:20.050Z,1008.43
2017-10-23T03:03:20.015Z,1008.46
2017-10-23T03:04:19.977Z,1008.36
2017-10-23T03:05:19.948Z,1008.39
2017-10-23T03:06:19.905Z,1008.37
2017-10-23T03:07:19.868Z,1008.44
2017-10-23T03:08:19.833Z,1008.39
2017-10-23T03:09:19.795Z,1008.36
2017-10-23T03:10:19.761Z,1008.56
2017-10-23T03:11:19.723Z,1008.56
2017-10-23T03:12:19.687Z,1008.50
2017-10-23T03:13:19.651Z,1008.61
2017-10-23T03:14:19.612Z,1008.59
2017-10-23T03:15:19.579Z,1008.58
2017-10-23T03:16:19.542Z,1008.64
2017-10-23T03:17:19.507Z,1008.54
2017-10-23T03:18:19.470Z,1008.65
2017-10-23T03:19:19.433Z,1008.65
2017-10-23T03:20:19.397Z,1008.60
2017-10-23T03:21:19.357Z,1008.68
2017-10-23T03:22:19.325Z,1008.63
2017-10-23T03:23:19.293Z,1008.60
2017-10-23T03:24:19.252Z,1008.76
2017-10-23T03:25:19.214Z,1008.67
2017-10-23T03:26:19.182Z,1008.71
2017-10-23T03:27:19.145Z,1008.70
2017-10-23T03:28:19.110Z,1008.76
2017-10-23T03:29:19.070Z,1008.76
2017-10-23T03:30:19.041Z,1008.73
2017-10-23T03:31:18.997Z,1008.68
2017-10-23T03:32:18.961Z,1008.79
2017-10-23T03:33:18.933Z,1008.73
2017-10-23T03:34:18.888Z,1008.82
2017-10-23T03:35:18.853Z,1008.82
2017-10-23T03:36:18.817Z,1008.87
2017-10-23T03:37:18.781Z,1008.87
2017-10-23T03:38:18.744Z,1008.89
2017-10-23T03:39:18.708Z,1008.87
2017-10-23T03:40:18.672Z,1008.86
2017-10-23T03:41:18.635Z,1008.89
2017-10-23T03:42:18.600Z,1008.86
2017-10-23T03:43:18.567Z,1008.83
2017-10-23T03:44:18.528Z,1008.89
2017-10-23T03:45:18.491Z,1008.86
2017-10-23T03:46:18.455Z,1008.89
2017-10-23T03:47:18.418Z,1008.90
2017-10-23T03:48:18.382Z,1008.92
2017-10-23T03:49:18.345Z,1008.89
2017-10-23T03:50:18.310Z,1008.89
2017-10-23T03:51:18.275Z,1008.92
2017-10-23T03:52:18.238Z,1008.92
2017-10-23T03:53:18.200Z,1008.90
2017-10-23T03:54:18.163Z,1008.95
2017-10-23T03:55:18.129Z,1008.97
2017-10-23T03:56:18.093Z,1008.92
2017-10-23T03:57:18.057Z,1008.79
2017-10-23T03:58:18.021Z,1009.05
2017-10-23T03:59:17.985Z,1009.02
2017-10-23T04:00:17.947Z,1008.97
2017-10-23T04:01:17.913Z,1009.06
2017-10-23T04:02:17.876Z,1008.87
2017-10-23T04:03:17.838Z,1009.01
2017-10-23T04:04:17.805Z,1008.98
2017-10-23T04:05:17.768Z,1009.00
2017-10-23T04:06:17.729Z,1009.04
2017-10-23T04:07:17.698Z,1009.00
2017-10-23T04:08:17.660Z,1008.98
2017-10-23T04:09:17.622Z,1008.97
2017-10-23T04:10:17.586Z,1008.96
2017-10-23T04:11:17.549Z,1008.98
2017-10-23T04:12:17.512Z,1008.95
2017-10-23T04:13:17.477Z,1009.00
2017-10-23T04:14:17.441Z,1008.94
2017-10-23T04:15:17.405Z,1008.94
2017-10-23T04:16:17.369Z,1009.06
2017-10-23T04:17:17.334Z,1009.02
2017-10-23T04:18:17.294Z,1009.05
2017-10-23T04:19:17.260Z,1009.01
2017-10-23T04:20:17.226Z,1008.98
2017-10-23T04:21:17.187Z,1009.04
2017-10-23T04:22:17.152Z,1009.06
2017-10-23T04:23:17.117Z,1009.03
2017-10-23T04:24:17.078Z,1009.06
2017-10-23T04:25:17.042Z,1009.12
2017-10-23T04:26:17.006Z,1009.04
2017-10-23T04:27:16.971Z,1009.10
2017-10-23T04:28:16.935Z,1009.12
2017-10-23T04:29:16.904Z,1009.07
2017-10-23T04:30:16.863Z,1009.06
2017-10-23T04:31:16.827Z,1009.08
2017-10-23T04:32:16.790Z,1009.11
2017-10-23T04:33:16.752Z,1009.04
2017-10-23T04:34:16.717Z,1009.06
2017-10-23T04:35:16.681Z,1009.11
2017-10-23T04:36:16.646Z,1009.08
2017-10-23T04:37:16.613Z,1009.10
2017-10-23T04:38:16.573Z,1009.08
2017-10-23T04:39:16.537Z,1009.11
2017-10-23T04:40:16.501Z,1009.05
2017-10-23T04:41:16.462Z,1009.12
2017-10-23T04:42:16.427Z,1009.07
2017-10-23T04:43:16.393Z,1009.14
2017-10-23T04:44:16.356Z,1009.09
2017-10-23T04:45:16.318Z,1008.98
2017-10-23T04:46:16.284Z,1009.13
2017-10-23T04:47:16.250Z,1009.09
2017-10-23T04:48:16.212Z,1009.15
2017-10-23T04:49:16.176Z,1009.18
2017-10-23T04:50:16.138Z,1009.23
2017-10-23T04:51:16.101Z,1009.19
2017-10-23T04:52:16.072Z,1009.20
2017-10-23T04:53:16.031Z,1009.18
2017-10-23T04:54:15.996Z,1009.15
2017-10-23T04:55:15.957Z,1009.15
2017-10-23T04:56:15.921Z,1009.16
2017-10-23T04:57:15.887Z,1009.22
2017-10-23T04:58:15.850Z,1009.14
2017-10-23T04:59:15.815Z,1009.16
2017-10-23T05:00:15.778Z,1009.12
2017-10-23T05:01:15.744Z,1009.14
2017-10-23T05:02:15.703Z,1009.20
2017-10-23T05:03:15.669Z,1009.12
2017-10-23T05:04:15.634Z,1009.05
2017-10-23T05:05:15.596Z,1009.13
2017-10-23T05:06:15.561Z,1009.19
2017-10-23T05:07:15.584Z,1009.16
2017-10-23T05:08:15.487Z,1009.15
2017-10-23T05:09:15.451Z,1009.17
2017-10-23T05:10:15.431Z,1009.13
2017-10-23T05:11:15.380Z,1009.15
2017-10-23T05:12:15.341Z,1009.10
2017-10-23T05:13:15.304Z,1009.14
2017-10-23T05:14:15.270Z,1009.15
2017-10-23T05:15:15.234Z,1009.15
2017-10-23T05:16:15.198Z,1009.13
2017-10-23T05:17:15.160Z,1009.12
2017-10-23T05:18:15.124Z,1009.12
2017-10-23T05:19:15.090Z,1009.11
2017-10-23T05:20:15.053Z,1009.12
2017-10-23T05:21:15.015Z,1009.11
2017-10-23T05:22:14.980Z,1009.12
2017-10-23T05:23:14.945Z,1009.06
2017-10-23T05:24:14.908Z,1009.08
2017-10-23T05:25:14.870Z,1009.17
2017-10-23T05:26:14.834Z,1009.10
2017-10-23T05:27:14.798Z,1009.08
2017-10-23T05:28:14.760Z,1009.03
2017-10-23T05:29:14.725Z,1009.00
2017-10-23T05:30:14.687Z,1009.06
2017-10-23T05:31:14.666Z,1009.19
2017-10-23T05:32:14.615Z,1009.00
2017-10-23T05:33:14.591Z,1009.06
2017-10-23T05:34:14.542Z,1009.05
2017-10-23T05:35:14.505Z,1009.09
2017-10-23T05:36:14.469Z,1009.06
2017-10-23T05:37:14.438Z,1009.05
2017-10-23T05:38:14.396Z,1009.04
2017-10-23T05:39:14.359Z,1009.03
2017-10-23T05:40:14.533Z,1008.99
2017-10-23T05:41:14.285Z,1009.06
2017-10-23T05:42:14.249Z,1009.07
2017-10-23T05:43:14.213Z,1009.07
2017-10-23T05:44:14.177Z,1009.14
2017-10-23T05:45:14.140Z,1008.99
2017-10-23T05:46:14.102Z,1009.10
2017-10-23T05:47:14.067Z,1009.14
2017-10-23T05:48:14.029Z,1009.14
2017-10-23T05:49:13.990Z,1009.14
2017-10-23T05:50:13.956Z,1009.16
2017-10-23T05:51:14.001Z,1009.13
2017-10-23T05:52:13.882Z,1009.17
2017-10-23T05:53:13.845Z,1009.20
2017-10-23T05:54:13.811Z,1009.23
2017-10-23T05:55:13.772Z,1009.24
2017-10-23T05:56:13.734Z,1009.22
2017-10-23T05:57:13.698Z,1009.22
2017-10-23T05:58:13.669Z,1009.20
2017-10-23T05:59:13.630Z,1009.21
2017-10-23T06:00:13.588Z,1009.30
2017-10-23T06:01:13.552Z,1009.30
2017-10-23T06:02:13.515Z,1009.39
2017-10-23T06:03:13.479Z,1009.38
2017-10-23T06:04:13.442Z,1009.44
2017-10-23T06:05:13.407Z,1009.42
2017-10-23T06:06:13.369Z,1009.48
2017-10-23T06:07:13.331Z,1009.45
2017-10-23T06:08:13.294Z,1009.48
2017-10-23T06:09:13.258Z,1009.48
2017-10-23T06:10:13.223Z,1009.52
2017-10-23T06:11:13.184Z,1009.48
2017-10-23T06:12:13.148Z,1009.55
2017-10-23T06:13:13.112Z,1009.56
2017-10-23T06:14:13.075Z,1009.58
2017-10-23T06:15:13.037Z,1009.58
2017-10-23T06:16:13.000Z,1009.62
2017-10-23T06:17:12.962Z,1009.55
2017-10-23T06:18:12.930Z,1009.57
2017-10-23T06:19:12.892Z,1009.50
2017-10-23T06:20:12.856Z,1009.56
2017-10-23T06:21:12.818Z,1009.55
2017-10-23T06:22:12.782Z,1009.64
2017-10-23T06:23:12.746Z,1009.67
2017-10-23T06:24:12.709Z,1009.65
2017-10-23T06:25:12.673Z,1009.65
2017-10-23T06:26:12.636Z,1009.69
2017-10-23T06:27:12.598Z,1009.71
2017-10-23T06:28:12.564Z,1009.71
2017-10-23T06:29:12.525Z,1009.63
2017-10-23T06:30:12.490Z,1009.73
2017-10-23T06:31:12.452Z,1009.68
2017-10-23T06:32:12.416Z,1009.63
2017-10-23T06:33:12.378Z,1009.72
2017-10-23T06:34:12.343Z,1009.72
2017-10-23T06:35:12.318Z,1009.74
2017-10-23T06:36:12.270Z,1009.78
2017-10-23T06:37:12.231Z,1009.77
2017-10-23T06:38:12.272Z,1009.80
2017-10-23T06:39:12.160Z,1009.79
2017-10-23T06:40:12.123Z,1009.76
2017-10-23T06:41:12.085Z,1009.82
2017-10-23T06:42:12.052Z,1009.76
2017-10-23T06:43:12.013Z,1009.83
2017-10-23T06:44:11.977Z,1009.78
2017-10-23T06:45:11.940Z,1009.79
2017-10-23T06:46:11.903Z,1009.75
2017-10-23T06:47:11.867Z,1009.79
2017-10-23T06:48:11.832Z,1009.78
2017-10-23T06:49:11.908Z,1009.78
2017-10-23T06:50:11.908Z,1009.80
2017-10-23T06:51:11.723Z,1009.76
2017-10-23T06:52:11.685Z,1009.71
2017-10-23T06:53:11.650Z,1009.70
2017-10-23T06:54:11.614Z,1009.73
2017-10-23T06:55:11.575Z,1009.76
2017-10-23T06:56:11.541Z,1009.69
2017-10-23T06:57:11.501Z,1009.66
2017-10-23T06:58:11.468Z,1009.76
2017-10-23T06:59:11.431Z,1009.75
2017-10-23T07:00:11.395Z,1009.63
2017-10-23T07:01:11.358Z,1009.67
2017-10-23T07:02:11.325Z,1009.67
2017-10-23T07:03:11.285Z,1009.79
2017-10-23T07:04:11.249Z,1009.74
2017-10-23T07:05:11.212Z,1009.76
2017-10-23T07:06:11.176Z,1009.77
2017-10-23T07:07:11.140Z,1009.76
2017-10-23T07:08:11.105Z,1009.72
2017-10-23T07:09:11.069Z,1009.78
2017-10-23T07:10:11.030Z,1009.78
2017-10-23T07:11:10.994Z,1009.81
2017-10-23T07:12:10.959Z,1009.87
2017-10-23T07:13:10.920Z,1009.83
2017-10-23T07:14:10.887Z,1009.87
2017-10-23T07:15:10.850Z,1009.88
2017-10-23T07:16:10.814Z,1009.86
2017-10-23T07:17:10.776Z,1009.83
2017-10-23T07:18:10.741Z,1009.86
2017-10-23T07:19:10.707Z,1009.91
2017-10-23T07:20:10.671Z,1009.86
2017-10-23T07:21:10.632Z,1009.83
2017-10-23T07:22:10.597Z,1009.85
2017-10-23T07:23:10.556Z,1009.86
2017-10-23T07:24:10.525Z,1009.88
2017-10-23T07:25:10.488Z,1009.88
2017-10-23T07:26:10.471Z,1009.92
2017-10-23T07:27:10.417Z,1009.90
2017-10-23T07:28:10.380Z,1009.94
2017-10-23T07:29:10.345Z,1009.93
2017-10-23T07:30:10.310Z,1009.92
2017-10-23T07:31:10.272Z,1009.91
2017-10-23T07:32:10.248Z,1009.88
2017-10-23T07:33:10.200Z,1009.83
2017-10-23T07:34:10.170Z,1009.82
2017-10-23T07:35:10.129Z,1009.86
2017-10-23T07:36:10.093Z,1009.85
2017-10-23T07:37:10.059Z,1009.82
2017-10-23T07:38:10.021Z,1009.85
2017-10-23T07:39:09.985Z,1009.84
2017-10-23T07:40:09.950Z,1009.85
2017-10-23T07:41:09.915Z,1009.89
2017-10-23T07:42:09.879Z,1009.88
2017-10-23T07:43:09.842Z,1009.88
2017-10-23T07:44:09.808Z,1009.81
2017-10-23T07:45:09.770Z,1009.83
2017-10-23T07:46:09.735Z,1009.76
2017-10-23T07:47:09.699Z,1009.88
2017-10-23T07:48:09.664Z,1009.87
2017-10-23T07:49:09.627Z,1009.83
2017-10-23T07:50:09.592Z,1009.86
2017-10-23T07:51:09.557Z,1009.87
2017-10-23T07:52:09.520Z,1009.78
2017-10-23T07:53:09.484Z,1009.90
2017-10-23T07:54:09.449Z,1009.91
2017-10-23T07:55:09.414Z,1009.89
2017-10-23T07:56:09.378Z,1009.87
2017-10-23T07:57:09.342Z,1009.83
2017-10-23T07:58:09.309Z,1009.94
2017-10-23T07:59:09.272Z,1009.85
2017-10-23T08:00:09.238Z,1009.89
2017-10-23T08:01:09.207Z,1009.95
2017-10-23T08:02:09.164Z,1009.90
2017-10-23T08:03:09.129Z,1009.83
2017-10-23T08:04:09.095Z,1009.85
2017-10-23T08:05:09.058Z,1009.88
2017-10-23T08:06:09.022Z,1009.90
2017-10-23T08:07:08.989Z,1009.92
2017-10-23T08:08:08.951Z,1009.97
2017-10-23T08:09:08.916Z,1010.02
2017-10-23T08:10:08.879Z,1010.05
2017-10-23T08:11:08.845Z,1010.04
2017-10-23T08:12:08.816Z,1010.05
2017-10-23T08:13:08.773Z,1010.02
2017-10-23T08:14:08.740Z,1010.01
2017-10-23T08:15:08.704Z,1010.14
2017-10-23T08:16:08.669Z,1010.05
2017-10-23T08:17:08.634Z,1010.11
2017-10-23T08:18:08.599Z,1010.11
2017-10-23T08:19:08.564Z,1010.12
2017-10-23T08:20:08.529Z,1010.07
2017-10-23T08:21:08.558Z,1010.12
2017-10-23T08:22:08.460Z,1010.11
2017-10-23T08:23:08.424Z,1010.14
2017-10-23T08:24:08.453Z,1010.14
2017-10-23T08:25:08.595Z,1010.12
2017-10-23T08:26:08.317Z,1010.15
2017-10-23T08:27:08.284Z,1010.09
2017-10-23T08:28:08.249Z,1010.11
2017-10-23T08:29:08.213Z,1010.09
2017-10-23T08:30:08.597Z,1010.20
2017-10-23T08:31:08.144Z,1010.12
2017-10-23T08:32:08.107Z,1010.23
2017-10-23T08:33:08.077Z,1010.19
2017-10-23T08:34:08.037Z,1010.17
2017-10-23T08:35:08.003Z,1010.13
2017-10-23T08:36:07.970Z,1010.15
2017-10-23T08:37:07.933Z,1010.06
2017-10-23T08:38:07.897Z,1010.05
2017-10-23T08:39:07.861Z,1010.14
2017-10-23T08:40:07.828Z,1010.12
2017-10-23T08:41:07.793Z,1010.09
2017-10-23T08:42:07.756Z,1010.19
2017-10-23T08:43:07.723Z,1010.21
2017-10-23T08:44:07.687Z,1010.13
2017-10-23T08:45:07.653Z,1010.05
2017-10-23T08:46:07.612Z,1010.17
2017-10-23T08:47:07.582Z,1009.93
2017-10-23T08:48:07.547Z,1010.08
2017-10-23T08:49:07.511Z,1010.13
2017-10-23T08:50:07.494Z,1010.22
2017-10-23T08:51:07.440Z,1010.13
2017-10-23T08:52:07.410Z,1010.21
2017-10-23T08:53:07.377Z,1010.18
2017-10-23T08:54:07.491Z,1010.20
2017-10-23T08:55:07.303Z,1010.23
2017-10-23T08:56:07.269Z,1010.19
2017-10-23T08:57:07.232Z,1010.22
2017-10-23T08:58:07.199Z,1010.18
2017-10-23T08:59:07.215Z,1010.25
2017-10-23T09:00:07.507Z,1010.24
2017-10-23T09:01:07.094Z,1010.28
2017-10-23T09:02:07.059Z,1010.28
2017-10-23T09:03:07.027Z,1010.30
2017-10-23T09:04:06.990Z,1010.23
2017-10-23T09:05:06.957Z,1010.23
2017-10-23T09:06:06.923Z,1010.29
2017-10-23T09:07:06.888Z,1010.17
2017-10-23T09:08:06.856Z,1010.27
2017-10-23T09:09:06.819Z,1010.26
2017-10-23T09:10:06.815Z,1010.28
2017-10-23T09:11:06.837Z,1010.33
2017-10-23T09:12:06.711Z,1010.28
2017-10-23T09:13:06.683Z,1010.32
2017-10-23T09:14:06.659Z,1010.31
2017-10-23T09:15:06.613Z,1010.30
2017-10-23T09:16:06.574Z,1010.27
2017-10-23T09:17:06.545Z,1010.24
2017-10-23T09:18:06.525Z,1010.23
2017-10-23T09:19:06.480Z,1010.07
2017-10-23T09:20:06.445Z,1010.22
2017-10-23T09:21:06.408Z,1010.30
2017-10-23T09:22:06.377Z,1010.33
2017-10-23T09:23:06.345Z,1010.39
2017-10-23T09:24:06.309Z,1010.41
2017-10-23T09:25:06.278Z,1010.41
2017-10-23T09:26:06.242Z,1010.40
2017-10-23T09:27:06.208Z,1010.38
2017-10-23T09:28:06.175Z,1010.43
2017-10-23T09:29:06.146Z,1010.43
2017-10-23T09:30:06.110Z,1010.60
2017-10-23T09:31:06.075Z,1010.54
2017-10-23T09:32:06.050Z,1010.60
2017-10-23T09:33:06.007Z,1010.55
2017-10-23T09:34:05.975Z,1010.43
2017-10-23T09:35:05.943Z,1010.47
2017-10-23T09:36:05.909Z,1010.49
2017-10-23T09:37:05.876Z,1010.33
2017-10-23T09:38:05.842Z,1010.39
2017-10-23T09:39:05.809Z,1010.55
2017-10-23T09:40:05.777Z,1010.49
2017-10-23T09:41:05.744Z,1010.37
2017-10-23T09:42:05.712Z,1010.45
2017-10-23T09:43:05.820Z,1010.41
2017-10-23T09:44:05.649Z,1010.42
2017-10-23T09:45:05.625Z,1010.41
2017-10-23T09:46:05.580Z,1010.49
2017-10-23T09:47:05.546Z,1010.49
2017-10-23T09:48:05.513Z,1010.51
2017-10-23T09:49:05.481Z,1010.40
2017-10-23T09:50:05.450Z,1010.39
2017-10-23T09:51:05.415Z,1010.51
2017-10-23T09:52:05.383Z,1010.51
2017-10-23T09:53:05.352Z,1010.43
2017-10-23T09:54:05.314Z,1010.36
2017-10-23T09:55:05.283Z,1010.44
2017-10-23T09:56:05.251Z,1010.48
2017-10-23T09:57:05.218Z,1010.47
2017-10-23T09:58:05.184Z,1010.59
2017-10-23T09:59:05.154Z,1010.46
2017-10-23T10:00:05.119Z,1010.36
2017-10-23T10:01:05.078Z,1010.50
2017-10-23T10:02:05.058Z,1010.53
2017-10-23T10:03:05.022Z,1010.48
2017-10-23T10:04:04.987Z,1010.45
2017-10-23T10:05:04.953Z,1010.39
2017-10-23T10:06:04.926Z,1010.43
2017-10-23T10:07:04.888Z,1010.47
2017-10-23T10:08:04.854Z,1010.58
2017-10-23T10:09:04.826Z,1010.57
2017-10-23T10:10:04.788Z,1010.55
2017-10-23T10:11:04.757Z,1010.57
2017-10-23T10:12:04.724Z,1010.67
2017-10-23T10:13:04.689Z,1010.56
2017-10-23T10:14:04.658Z,1010.58
2017-10-23T10:15:04.624Z,1010.62
2017-10-23T10:16:04.591Z,1010.63
2017-10-23T10:17:04.559Z,1010.55
2017-10-23T10:18:04.525Z,1010.67
2017-10-23T10:19:04.492Z,1010.67
2017-10-23T10:20:04.462Z,1010.69
2017-10-23T10:21:04.443Z,1010.66
2017-10-23T10:22:04.393Z,1010.67
2017-10-23T10:23:04.358Z,1010.64
2017-10-23T10:24:04.325Z,1010.58
2017-10-23T10:25:04.296Z,1010.51
2017-10-23T10:26:04.261Z,1010.41
2017-10-23T10:27:04.227Z,1010.53
2017-10-23T10:28:04.194Z,1010.59
2017-10-23T10:29:04.160Z,1010.62
2017-10-23T10:30:04.127Z,1010.60
2017-10-23T10:31:04.096Z,1010.71
2017-10-23T10:32:04.061Z,1010.67
2017-10-23T10:33:04.028Z,1010.71
2017-10-23T10:34:03.995Z,1010.57
2017-10-23T10:35:03.962Z,1010.63
2017-10-23T10:36:03.930Z,1010.69
2017-10-23T10:37:03.891Z,1010.76
2017-10-23T10:38:03.862Z,1010.76
2017-10-23T10:39:03.831Z,1010.71
2017-10-23T10:40:03.797Z,1010.90
2017-10-23T10:41:03.768Z,1011.43
2017-10-23T10:42:03.732Z,1010.93
2017-10-23T10:43:03.700Z,1010.77
2017-10-23T10:44:03.669Z,1010.83
2017-10-23T10:45:03.637Z,1010.96
2017-10-23T10:46:03.608Z,1011.21
2017-10-23T10:47:03.574Z,1010.83
2017-10-23T10:48:03.546Z,1010.71
2017-10-23T10:49:03.512Z,1010.89
2017-10-23T10:50:03.481Z,1010.91
2017-10-23T10:51:03.453Z,1010.88
2017-10-23T10:52:03.421Z,1010.85
2017-10-23T10:53:03.388Z,1010.74
2017-10-23T10:54:03.357Z,1010.63
2017-10-23T10:55:03.326Z,1010.83
2017-10-23T10:56:03.298Z,1010.73
2017-10-23T10:57:03.725Z,1010.80
2017-10-23T10:58:03.237Z,1010.74
2017-10-23T10:59:03.210Z,1010.72
2017-10-23T11:00:03.175Z,1010.73
2017-10-23T11:01:03.141Z,1010.68
2017-10-23T11:02:03.614Z,1010.76
2017-10-23T11:03:03.077Z,1010.79
2017-10-23T11:04:03.049Z,1010.77
2017-10-23T11:05:03.016Z,1010.65
2017-10-23T11:06:02.984Z,1010.61
2017-10-23T11:07:02.958Z,1010.72
2017-10-23T11:08:02.917Z,1010.70
2017-10-23T11:09:02.890Z,1010.71
2017-10-23T11:10:02.857Z,1010.75
2017-10-23T11:11:02.926Z,1010.75
2017-10-23T11:12:02.795Z,1010.77
2017-10-23T11:13:02.762Z,1010.80
2017-10-23T11:14:02.731Z,1010.67
2017-10-23T11:15:02.702Z,1010.65
2017-10-23T11:16:02.669Z,1010.65
2017-10-23T11:17:02.636Z,1010.64
2017-10-23T11:18:02.606Z,1010.83
2017-10-23T11:19:02.573Z,1010.65
2017-10-23T11:20:02.545Z,1010.66
2017-10-23T11:21:02.508Z,1010.66
2017-10-23T11:22:02.915Z,1010.57
2017-10-23T11:23:02.450Z,1010.73
2017-10-23T11:24:02.419Z,1010.77
2017-10-23T11:25:02.389Z,1010.70
2017-10-23T11:26:02.358Z,1010.70
2017-10-23T11:27:02.328Z,1010.92
2017-10-23T11:28:02.299Z,1010.99
2017-10-23T11:29:02.268Z,1011.02
2017-10-23T11:30:02.241Z,1010.86
2017-10-23T11:31:02.210Z,1010.73
2017-10-23T11:32:02.183Z,1010.68
2017-10-23T11:33:02.153Z,1010.65
2017-10-23T11:34:02.125Z,1010.73
2017-10-23T11:35:02.097Z,1010.69
2017-10-23T11:36:02.065Z,1010.63
2017-10-23T11:37:02.037Z,1010.72
2017-10-23T11:38:02.008Z,1010.65
2017-10-23T11:39:01.978Z,1010.55
2017-10-23T11:40:01.947Z,1010.62
2017-10-23T11:41:01.916Z,1010.48
2017-10-23T11:42:01.886Z,1010.54
2017-10-23T11:43:01.859Z,1010.55
2017-10-23T11:44:01.827Z,1010.89
2017-10-23T11:45:01.796Z,1010.67
2017-10-23T11:46:01.766Z,1010.58
2017-10-23T11:47:01.734Z,1010.43
2017-10-23T11:48:01.706Z,1010.62
2017-10-23T11:49:01.677Z,1010.55
2017-10-23T11:50:01.643Z,1010.74
2017-10-23T11:51:01.613Z,1010.61
2017-10-23T11:52:01.583Z,1010.67
2017-10-23T11:53:01.550Z,1010.57
2017-10-23T11:54:01.803Z,1010.49
2017-10-23T11:55:01.486Z,1010.48
2017-10-23T11:56:01.457Z,1010.67
2017-10-23T11:57:01.428Z,1010.60
2017-10-23T11:58:01.807Z,1010.71
2017-10-23T11:59:01.362Z,1010.69
2017-10-23T12:00:01.334Z,1010.65
2017-10-23T12:01:01.297Z,1010.59
2017-10-23T12:02:01.267Z,1010.62
2017-10-23T12:03:01.241Z,1010.56
2017-10-23T12:04:01.202Z,1010.44
2017-10-23T12:05:01.170Z,1010.64